x

Buoy B01 - Western Maine Shelf (44030) Wave Buoy

8:04pm - Tue 16th Sep 2014 All times are EDT. -4 hours from GMT.

  • Sig Wave height 1.3ft
  • Peak Period 6s
  • Wind
    11mph, 13mph gusts
  • Sea Temp 62°f
  • Air Temp 61°f
  • Sea Pressure 1013.3mb
  • Buoy B01 - Western Maine Shelf
  • Buoy B01 - Western Maine Shelf

More Historic Weather Station data

Upgrade to MSW Pro to gain access to the past 30 days of data for over 8000 Wavebouys and Weather Stations around the globe.

Join Pro

Comparision Forecast

View Surf forecast
   
Tue 09/16 8:04pm 1.3ft 6s 11 13 mph 1013.3mb 62f 61f
7:04pm 1ft 3s 9 11 mph 1012.9mb 62f 60f
6:04pm 1.3ft 6s 9
mph
1012.7mb 62f 60f
5:04pm 1.6ft 8s 4 7 mph 1012.8mb 62f 60f
4:04pm 1.3ft 8s 4 7 mph 1012.9mb 62f 60f
3:04pm 1.3ft 8s 2
mph
1013.3mb 62f 60f
2:04pm 1.3ft 8s 4 7 mph 1013.5mb 62f 59f
1:04pm 1.3ft 8s 4 7 mph 1014.2mb 62f 59f
12:04pm 1.3ft 8s 4 7 mph 1014.8mb 62f 59f
11:04am 0.7ft  -  2 4 mph 1015.2mb 62f 58f
10:04am 1.6ft 8s 4 7 mph 1015.5mb 62f 58f
9:04am 0.7ft  -  4 7 mph 1015.8mb 62f 58f
8:04am 1.6ft 6s 4 7 mph 1016.1mb 62f 58f
7:04am 1.6ft 6s 7
mph
1016.2mb 62f 58f
6:04am 2ft 6s 9
mph
1016.2mb 62f 57f
5:04am 2ft 8s 9 11 mph 1016.3mb 62f 59f
4:04am 2ft 8s 13
mph
1016.4mb 62f 60f
3:04am 2.5ft 8s 11 13 mph 1017mb 62f 60f
2:04am 2ft 8s 11 13 mph 1017.6mb 62f 60f
1:04am 1.6ft 3s 13
mph
1018.1mb 62f 60f
12:04am 2.5ft 8s 13 16 mph 1017.9mb 62f 60f
Mon 09/15 11:04pm 1.3ft 3s 16 18 mph 1018.4mb 62f 60f
10:04pm 1ft 2s 13 18 mph 1018.9mb 62f 60f
9:04pm 1ft 6s 9 11 mph 1019mb 62f 61f
8:04pm 1.3ft 8s 9 11 mph 1018.9mb 62f 60f
7:04pm 1.3ft 6s 9 11 mph 1018.6mb 62f 60f
6:04pm 1.3ft 8s 9 11 mph 1018.7mb 62f 60f
5:04pm 1.6ft 8s 9 11 mph 1018.7mb 63f 59f
4:04pm 1.3ft 8s 7 9 mph 1019.2mb 63f 58f
3:04pm 1.6ft 8s 7 9 mph 1019.5mb 63f 57f
2:04pm 1.3ft 8s 7
mph
1020.1mb 63f 56f
1:04pm 1.3ft 8s 7 9 mph 1020.8mb 63f 55f
12:04pm 1.6ft 8s 7 9 mph 1021.4mb 62f 54f
11:04am 1.6ft 8s  -  mph - 62f -
10:04am  -   -  7 11 mph 1022.4mb 62f 53f
9:04am  -   -  7 9 mph 1022.6mb 62f 54f
8:04am  -   -  4 7 mph 1022.4mb 62f 54f
7:04am  -   -  7 9 mph 1022.7mb 62f 53f
6:04am  -   -  11 13 mph 1022.6mb 62f 52f
5:04am  -   -  7 9 mph 1022.2mb 62f 54f
4:04am  -   -  9 13 mph 1021.9mb 62f 54f
3:04am  -   -  13 18 mph 1021.8mb 62f 54f
2:04am  -   -  16 20 mph 1021.8mb 62f 54f
1:04am  -   -  18 22 mph 1021.8mb 62f 55f
12:04am  -   -  18 22 mph 1021.9mb 62f 55f
Sun 09/14 11:04pm  -   -  18 22 mph 1022.1mb 62f 56f
10:04pm  -   -  18 20 mph 1021.9mb 62f 58f
9:04pm  -   -  7 9 mph 1021.7mb 62f 60f
8:04pm  -   -  7 9 mph 1021.4mb 62f 59f
7:04pm  -   -  7 9 mph 1021mb 62f 59f
6:04pm  -   -  7 9 mph 1020.6mb 62f 59f
5:04pm  -   -  9
mph
1020.3mb 62f 59f
4:04pm  -   -  11 13 mph 1020.2mb 63f 58f
3:04pm  -   -  7 9 mph 1020mb 64f 58f
2:04pm  -   -  2 4 mph 1020.2mb 63f 57f
1:04pm  -   -  4 7 mph 1021mb 62f 56f
12:04pm  -   -  9 11 mph 1021.3mb 62f 55f
11:04am  -   -  11 16 mph 1021.5mb 62f 55f
10:04am  -   -  13 18 mph 1021.9mb 62f 53f
9:04am  -   -  16 18 mph 1021.6mb 62f 53f
8:04am  -   -  13 16 mph 1021.3mb 62f 53f
7:04am  -   -  13 16 mph 1020.7mb 62f 54f
6:04am  -   -  11 13 mph 1019.7mb 63f 55f
5:04am  -   -  16 18 mph 1018.7mb 63f 57f
4:04am  -   -  16 18 mph 1018mb 63f 58f
3:04am  -   -  11 13 mph 1017.9mb 62f 57f
2:04am  -   -  11 13 mph 1017.7mb 62f 56f
1:04am  -   -  11 13 mph 1017.8mb 63f 57f
12:04am  -   -  13 16 mph 1018.2mb 63f 58f
Sat 09/13 11:04pm  -   -  9 11 mph 1018.4mb 63f 60f
10:04pm  -   -  2 4 mph 1018.6mb 63f 61f
9:04pm  -   -  9 11 mph 1018.5mb 63f 60f
8:04pm  -   -  16 18 mph 1018.9mb 63f 59f
7:04pm  -   -  16 18 mph 1020mb 62f 58f
6:04pm  -   -  16 18 mph 1021.5mb 62f 57f
5:04pm  -   -  16 18 mph 1021.2mb 62f 58f
4:04pm  -   -  16 18 mph 1021.1mb 61f 58f
3:04pm  -   -  16 18 mph 1021.2mb 61f 58f
2:04pm  -   -  13 16 mph 1022.4mb 61f 58f
1:04pm  -   -  16 18 mph 1022.9mb 61f 57f
12:04pm  -   -  16 18 mph 1023.8mb 61f 57f
11:04am  -   -  18 22 mph 1024.2mb 61f 57f
10:04am  -   -  18 22 mph 1024.6mb 62f 57f
9:04am  -   -  18 20 mph 1025mb 62f 58f
8:04am  -   -  18 20 mph 1024.8mb 62f 58f
7:04am  -   -  18 20 mph 1024.9mb 62f 57f
6:04am  -   -  20 22 mph 1024mb 62f 56f
5:04am  -   -  20 25 mph 1023.7mb 62f 56f
4:04am  -   -  18 22 mph 1023.6mb 63f 56f
3:04am  -   -  20 25 mph 1023.4mb 63f 56f
2:04am  -   -  18 22 mph 1023.5mb 63f 56f